Time;durP1;ratioP1;P1;durP2;ratioP2;P2;SDS_P1;SDS_P2;PMS_P1;PMS_P2;Temp;Humidity;BMP_temperature;BMP_pressure;BME280_temperature;BME280_humidity;BME280_pressure;Samples;Min_cycle;Max_cycle;Signal;HPM_P1;HPM_P2
2023/08/22 00:00:27;;;;;;;20.90;8.90;;;;;;;;;;5091351;28;20452;-58
2023/08/22 00:02:53;;;;;;;17.35;9.10;;;;;;;;;;5090260;28;20179;-57
2023/08/22 00:05:19;;;;;;;17.88;9.50;;;;;;;;;;5084873;28;20058;-57
2023/08/22 00:07:45;;;;;;;17.58;9.68;;;;;;;;;;5088447;28;20058;-58
2023/08/22 00:10:11;;;;;;;17.02;8.63;;;;;;;;;;5085666;28;20379;-58
2023/08/22 00:12:37;;;;;;;19.70;9.82;;;;;;;;;;5091555;28;20078;-55
2023/08/22 00:15:07;;;;;;;19.80;9.35;;;;;;;;;;5090961;28;20027;-58
2023/08/22 00:17:34;;;;;;;20.88;9.07;;;;;;;;;;5091640;28;20020;-58
2023/08/22 00:20:00;;;;;;;16.10;8.73;;;;;;;;;;5091729;28;20028;-58
2023/08/22 00:22:26;;;;;;;18.10;9.32;;;;;;;;;;5086583;28;20029;-57
2023/08/22 00:24:52;;;;;;;19.35;10.02;;;;;;;;;;5052986;28;20115;-57
2023/08/22 00:27:18;;;;;;;19.52;9.00;;;;;;;;;;5071249;28;20174;-58
2023/08/22 00:29:44;;;;;;;18.05;8.65;;;;;;;;;;5070782;28;20055;-58
2023/08/22 00:32:10;;;;;;;17.77;9.00;;;;;;;;;;5070892;28;20127;-57
2023/08/22 00:34:36;;;;;;;18.20;8.65;;;;;;;;;;5070119;28;20523;-56
2023/08/22 00:37:02;;;;;;;22.75;9.57;;;;;;;;;;5072057;28;20024;-58
2023/08/22 00:39:28;;;;;;;18.23;9.35;;;;;;;;;;5070638;28;20027;-55
2023/08/22 00:41:54;;;;;;;19.75;9.27;;;;;;;;;;5070785;28;20035;-56
2023/08/22 00:44:20;;;;;;;16.85;9.20;;;;;;;;;;5070460;28;20056;-57
2023/08/22 00:46:46;;;;;;;20.08;9.25;;;;;;;;;;5070736;28;20048;-55
2023/08/22 00:49:12;;;;;;;16.38;8.57;;;;;;;;;;5070794;28;20062;-58
2023/08/22 00:51:39;;;;;;;18.58;9.02;;;;;;;;;;5071658;28;20028;-57
2023/08/22 00:54:06;;;;;;;19.67;9.52;;;;;;;;;;5070337;28;20029;-57
2023/08/22 00:56:32;;;;;;;19.58;9.32;;;;;;;;;;5052558;28;20062;-55
2023/08/22 00:58:59;;;;;;;16.33;8.27;;;;;;;;;;5070373;28;20400;-58
2023/08/22 01:01:26;;;;;;;16.52;8.65;;;;;;;;;;5072884;28;20028;-54
2023/08/22 01:03:52;;;;;;;18.55;8.85;;;;;;;;;;5061413;28;20044;-59
2023/08/22 01:06:31;;;;;;;18.02;8.80;;;;;;;;;;5074019;28;20029;-52
2023/08/22 01:09:04;;;;;;;18.02;8.77;;;;;;;;;;5070434;28;20037;-58
2023/08/22 01:11:39;;;;;;;17.75;9.02;;;;;;;;;;5070517;28;20489;-57
2023/08/22 01:14:07;;;;;;;18.75;9.18;;;;;;;;;;5071311;28;20020;-58
2023/08/22 01:16:34;;;;;;;19.88;8.95;;;;;;;;;;5052561;28;20492;-55
2023/08/22 01:19:01;;;;;;;17.05;9.23;;;;;;;;;;5070348;28;20115;-55
2023/08/22 01:21:28;;;;;;;19.42;8.80;;;;;;;;;;5071606;28;20048;-56
2023/08/22 01:23:53;;;;;;;17.15;8.90;;;;;;;;;;5090192;28;20039;-56
2023/08/22 01:26:19;;;;;;;17.42;9.35;;;;;;;;;;5090361;28;20032;-57
2023/08/22 01:28:45;;;;;;;19.38;8.40;;;;;;;;;;5090371;28;20103;-56
2023/08/22 01:31:22;;;;;;;19.05;9.35;;;;;;;;;;5090671;28;20078;-56
2023/08/22 01:34:04;;;;;;;16.70;8.85;;;;;;;;;;5090353;28;20461;-55
2023/08/22 01:36:30;;;;;;;18.27;9.35;;;;;;;;;;5090439;28;20028;-58
2023/08/22 01:38:56;;;;;;;19.58;8.65;;;;;;;;;;5090380;28;20031;-57
2023/08/22 01:41:23;;;;;;;17.75;8.70;;;;;;;;;;5090487;28;20024;-57
2023/08/22 01:43:52;;;;;;;18.83;8.43;;;;;;;;;;5090469;28;20028;-58
2023/08/22 01:46:18;;;;;;;18.05;9.23;;;;;;;;;;5074425;28;20140;-58
2023/08/22 01:48:44;;;;;;;18.98;9.13;;;;;;;;;;5093998;28;20031;-57
2023/08/22 01:51:10;;;;;;;17.55;8.48;;;;;;;;;;5076965;28;20078;-58
2023/08/22 01:53:36;;;;;;;21.02;9.90;;;;;;;;;;5093813;28;20496;-57
2023/08/22 01:56:02;;;;;;;18.35;9.20;;;;;;;;;;5093665;28;20016;-56
2023/08/22 01:58:28;;;;;;;17.90;9.10;;;;;;;;;;5075512;28;20032;-56
2023/08/22 02:00:54;;;;;;;19.27;8.68;;;;;;;;;;5093710;28;20059;-58
2023/08/22 02:03:21;;;;;;;19.70;8.43;;;;;;;;;;5093642;28;20035;-55
2023/08/22 02:05:47;;;;;;;20.80;9.00;;;;;;;;;;5093160;28;20028;-58
2023/08/22 02:08:13;;;;;;;16.48;8.73;;;;;;;;;;5093156;28;20028;-51
2023/08/22 02:10:39;;;;;;;17.75;8.45;;;;;;;;;;5093892;28;20035;-58
2023/08/22 02:13:05;;;;;;;16.00;7.75;;;;;;;;;;5093539;28;20031;-56
2023/08/22 02:15:31;;;;;;;16.48;8.48;;;;;;;;;;5093299;28;20024;-57
2023/08/22 02:17:57;;;;;;;15.98;7.57;;;;;;;;;;5093563;28;20387;-57
2023/08/22 02:20:25;;;;;;;16.40;8.13;;;;;;;;;;5093349;28;20034;-57
2023/08/22 02:22:51;;;;;;;17.48;8.38;;;;;;;;;;5091824;28;20028;-56
2023/08/22 02:25:17;;;;;;;17.35;8.32;;;;;;;;;;5093056;28;20097;-56
2023/08/22 02:27:43;;;;;;;18.45;9.18;;;;;;;;;;5093469;28;20524;-56
2023/08/22 02:30:10;;;;;;;16.75;8.07;;;;;;;;;;5093007;28;20085;-55
2023/08/22 02:32:36;;;;;;;17.77;9.20;;;;;;;;;;5093000;28;20024;-51
2023/08/22 02:35:03;;;;;;;18.38;8.45;;;;;;;;;;5092789;28;20017;-58
2023/08/22 02:37:29;;;;;;;15.52;8.23;;;;;;;;;;5093098;28;20388;-51
2023/08/22 02:39:55;;;;;;;16.27;7.90;;;;;;;;;;5092988;28;20061;-50
2023/08/22 02:42:22;;;;;;;17.23;8.10;;;;;;;;;;5098634;28;20102;-56
2023/08/22 02:44:48;;;;;;;22.40;8.63;;;;;;;;;;5100868;28;20039;-53
2023/08/22 02:47:14;;;;;;;16.52;8.45;;;;;;;;;;5093562;28;20035;-54
2023/08/22 02:49:40;;;;;;;17.55;8.75;;;;;;;;;;5092701;28;20430;-53
2023/08/22 02:52:07;;;;;;;25.85;8.57;;;;;;;;;;5060647;28;20025;-52
2023/08/22 02:54:33;;;;;;;16.35;8.45;;;;;;;;;;5072190;28;20430;-55
2023/08/22 02:56:58;;;;;;;18.48;8.20;;;;;;;;;;5071992;28;20024;-60
2023/08/22 02:59:25;;;;;;;21.30;8.82;;;;;;;;;;5072233;28;20485;-56
2023/08/22 03:01:50;;;;;;;15.75;8.50;;;;;;;;;;5072395;28;20024;-58
2023/08/22 03:04:16;;;;;;;16.17;8.63;;;;;;;;;;5054141;28;20029;-57
2023/08/22 03:06:42;;;;;;;16.77;8.25;;;;;;;;;;5072291;28;20039;-57
2023/08/22 03:09:08;;;;;;;17.60;7.88;;;;;;;;;;5072176;28;20032;-55
2023/08/22 03:11:34;;;;;;;18.52;8.50;;;;;;;;;;5072249;28;20477;-57
2023/08/22 03:14:00;;;;;;;19.85;8.57;;;;;;;;;;5072054;28;20161;-54
2023/08/22 03:16:26;;;;;;;17.95;8.65;;;;;;;;;;5071889;28;20025;-54
2023/08/22 03:18:52;;;;;;;16.27;8.25;;;;;;;;;;5053990;28;20053;-53
2023/08/22 03:21:18;;;;;;;17.77;8.57;;;;;;;;;;5073294;28;20400;-56
2023/08/22 03:23:44;;;;;;;16.67;8.10;;;;;;;;;;5071955;28;20024;-57
2023/08/22 03:26:11;;;;;;;18.33;8.50;;;;;;;;;;5071668;28;20036;-55
2023/08/22 03:28:37;;;;;;;18.50;9.35;;;;;;;;;;5071598;28;20484;-57
2023/08/22 03:31:03;;;;;;;19.58;10.40;;;;;;;;;;5071707;28;20047;-57
2023/08/22 03:33:30;;;;;;;18.15;9.18;;;;;;;;;;5080807;28;20024;-56
2023/08/22 03:35:57;;;;;;;17.90;9.48;;;;;;;;;;5091863;28;20028;-57
2023/08/22 03:38:23;;;;;;;18.20;9.18;;;;;;;;;;5091889;28;20077;-57
2023/08/22 03:40:49;;;;;;;18.08;8.48;;;;;;;;;;5092032;28;20369;-58
2023/08/22 03:43:16;;;;;;;21.25;9.98;;;;;;;;;;5091824;28;20162;-58
2023/08/22 03:45:43;;;;;;;17.25;8.93;;;;;;;;;;5091478;28;20020;-57
2023/08/22 03:48:09;;;;;;;19.80;10.35;;;;;;;;;;5091402;28;20028;-58
2023/08/22 03:50:35;;;;;;;18.70;9.93;;;;;;;;;;5085574;28;20396;-58
2023/08/22 03:53:01;;;;;;;19.33;9.40;;;;;;;;;;5071133;28;20032;-57
2023/08/22 03:55:27;;;;;;;18.55;10.02;;;;;;;;;;5053074;28;20021;-57
2023/08/22 03:57:53;;;;;;;18.42;9.75;;;;;;;;;;5070736;28;20016;-57
2023/08/22 04:00:19;;;;;;;19.38;10.27;;;;;;;;;;5071025;28;20073;-58
2023/08/22 04:02:45;;;;;;;19.23;10.35;;;;;;;;;;5070988;28;20021;-56
2023/08/22 04:05:11;;;;;;;19.48;10.40;;;;;;;;;;5052929;28;20031;-58
2023/08/22 04:07:37;;;;;;;19.55;10.73;;;;;;;;;;5070480;28;20496;-58
2023/08/22 04:10:03;;;;;;;23.70;9.90;;;;;;;;;;5070833;28;20029;-57
2023/08/22 04:12:29;;;;;;;22.13;10.32;;;;;;;;;;5070982;28;20027;-57
2023/08/22 04:14:55;;;;;;;18.77;9.68;;;;;;;;;;5070573;28;20531;-57
2023/08/22 04:17:21;;;;;;;17.40;9.68;;;;;;;;;;5070814;28;20056;-57
2023/08/22 04:19:47;;;;;;;22.80;10.13;;;;;;;;;;5071824;28;20020;-54
2023/08/22 04:22:13;;;;;;;18.95;9.98;;;;;;;;;;5071004;28;20090;-56
2023/08/22 04:24:39;;;;;;;20.35;11.23;;;;;;;;;;5077235;28;20032;-54
2023/08/22 04:27:05;;;;;;;19.90;10.38;;;;;;;;;;5072326;28;20455;-55
2023/08/22 04:29:31;;;;;;;18.00;9.93;;;;;;;;;;5070928;28;20051;-58
2023/08/22 04:31:58;;;;;;;21.50;10.07;;;;;;;;;;5070790;28;20477;-56
2023/08/22 04:34:24;;;;;;;21.83;10.65;;;;;;;;;;5070574;28;20020;-57
2023/08/22 04:36:50;;;;;;;22.13;10.75;;;;;;;;;;5070623;28;20028;-58
2023/08/22 04:39:16;;;;;;;23.80;12.15;;;;;;;;;;5070607;28;20036;-59
2023/08/22 04:41:43;;;;;;;19.60;11.55;;;;;;;;;;5070922;28;20562;-56
2023/08/22 04:44:09;;;;;;;24.85;12.25;;;;;;;;;;5070564;28;20028;-58
2023/08/22 04:46:35;;;;;;;26.15;13.48;;;;;;;;;;5070745;28;20510;-57
2023/08/22 04:49:01;;;;;;;20.67;10.43;;;;;;;;;;5070581;28;20127;-55
2023/08/22 04:51:27;;;;;;;22.67;10.95;;;;;;;;;;5068922;28;20032;-58
2023/08/22 04:53:53;;;;;;;25.83;12.55;;;;;;;;;;5091356;28;20082;-58
2023/08/22 04:56:19;;;;;;;29.73;12.95;;;;;;;;;;5090979;28;20023;-56
2023/08/22 04:58:45;;;;;;;20.90;11.10;;;;;;;;;;5090885;28;20031;-54
2023/08/22 05:01:11;;;;;;;22.00;11.30;;;;;;;;;;5091114;28;20039;-58
2023/08/22 05:03:37;;;;;;;23.40;12.07;;;;;;;;;;5072946;28;20024;-57
2023/08/22 05:06:03;;;;;;;20.52;10.43;;;;;;;;;;5091034;28;20043;-58
2023/08/22 05:08:30;;;;;;;20.85;10.40;;;;;;;;;;5090550;28;20024;-57
2023/08/22 05:10:55;;;;;;;25.15;13.25;;;;;;;;;;5090469;28;20054;-57
2023/08/22 05:13:21;;;;;;;23.60;11.63;;;;;;;;;;5072361;28;20472;-58
2023/08/22 05:15:47;;;;;;;25.13;14.32;;;;;;;;;;5090278;28;20541;-57
2023/08/22 05:18:13;;;;;;;23.77;11.57;;;;;;;;;;5072082;28;20084;-57
2023/08/22 05:20:43;;;;;;;22.35;10.57;;;;;;;;;;5091610;28;20032;-57
2023/08/22 05:23:09;;;;;;;23.52;11.93;;;;;;;;;;5094608;28;20411;-59
2023/08/22 05:25:35;;;;;;;24.42;11.80;;;;;;;;;;5075430;28;20031;-58
2023/08/22 05:28:01;;;;;;;26.58;13.20;;;;;;;;;;5094497;28;20039;-56
2023/08/22 05:30:27;;;;;;;20.60;10.88;;;;;;;;;;5094020;28;20020;-56
2023/08/22 05:32:53;;;;;;;28.42;13.32;;;;;;;;;;5089553;28;20082;-53
2023/08/22 05:35:19;;;;;;;24.17;11.77;;;;;;;;;;5074128;28;20079;-56
2023/08/22 05:37:45;;;;;;;23.48;12.30;;;;;;;;;;5074005;28;20476;-58
2023/08/22 05:40:11;;;;;;;20.48;12.60;;;;;;;;;;5055903;28;20032;-54
2023/08/22 05:42:37;;;;;;;25.35;13.02;;;;;;;;;;5073766;28;20136;-57
2023/08/22 05:45:04;;;;;;;20.95;11.68;;;;;;;;;;5073207;28;20119;-55
2023/08/22 05:47:30;;;;;;;20.20;11.32;;;;;;;;;;5073642;28;20116;-55
2023/08/22 05:49:55;;;;;;;23.70;12.57;;;;;;;;;;5073299;28;20492;-58
2023/08/22 05:52:25;;;;;;;26.13;14.18;;;;;;;;;;5073443;28;20086;-61
2023/08/22 05:54:51;;;;;;;21.60;12.77;;;;;;;;;;5073044;28;20395;-57
2023/08/22 05:57:17;;;;;;;25.15;13.35;;;;;;;;;;5073901;28;20020;-59
2023/08/22 05:59:43;;;;;;;21.23;11.98;;;;;;;;;;5073156;28;20040;-61
2023/08/22 06:02:09;;;;;;;21.08;12.15;;;;;;;;;;5073554;28;20350;-59
2023/08/22 06:04:35;;;;;;;22.20;12.63;;;;;;;;;;5093510;28;20492;-57
2023/08/22 06:07:01;;;;;;;21.15;12.73;;;;;;;;;;5090325;28;20638;-54
2023/08/22 06:09:27;;;;;;;20.02;12.02;;;;;;;;;;5083611;28;20484;-57
2023/08/22 06:11:53;;;;;;;23.70;13.23;;;;;;;;;;5077586;28;20024;-58
2023/08/22 06:14:19;;;;;;;32.13;19.17;;;;;;;;;;5076080;28;20515;-58
2023/08/22 06:16:45;;;;;;;31.13;18.98;;;;;;;;;;5073450;28;20033;-57
2023/08/22 06:19:11;;;;;;;27.20;16.02;;;;;;;;;;5092741;28;20076;-59
2023/08/22 06:21:36;;;;;;;26.20;16.98;;;;;;;;;;5092505;28;20066;-60
2023/08/22 06:24:04;;;;;;;19.33;12.25;;;;;;;;;;5092555;28;20024;-57
2023/08/22 06:26:30;;;;;;;23.10;13.40;;;;;;;;;;5092633;28;20028;-59
2023/08/22 06:28:56;;;;;;;25.75;12.43;;;;;;;;;;5092515;28;20028;-57
2023/08/22 06:31:22;;;;;;;20.75;12.45;;;;;;;;;;5091723;28;20115;-59
2023/08/22 06:33:48;;;;;;;18.52;11.68;;;;;;;;;;5075962;28;20078;-58
2023/08/22 06:36:14;;;;;;;20.65;13.25;;;;;;;;;;5061853;28;20036;-58
2023/08/22 06:38:40;;;;;;;18.63;12.05;;;;;;;;;;5082585;28;20032;-58
2023/08/22 06:41:07;;;;;;;20.15;11.73;;;;;;;;;;5074422;28;20075;-54
2023/08/22 06:43:33;;;;;;;18.30;12.50;;;;;;;;;;5082920;28;20031;-56
2023/08/22 06:45:59;;;;;;;18.70;12.35;;;;;;;;;;5077590;28;20029;-56
2023/08/22 06:48:26;;;;;;;21.58;12.93;;;;;;;;;;5072077;28;20032;-57
2023/08/22 06:50:53;;;;;;;17.63;11.40;;;;;;;;;;5053903;28;20457;-58
2023/08/22 06:53:19;;;;;;;21.70;13.20;;;;;;;;;;5071992;28;20107;-56
2023/08/22 06:55:48;;;;;;;21.48;12.00;;;;;;;;;;5071517;28;20024;-58
2023/08/22 06:58:14;;;;;;;22.15;12.02;;;;;;;;;;5053536;28;20025;-58
2023/08/22 07:00:40;;;;;;;20.20;11.60;;;;;;;;;;5071957;28;20060;-57
2023/08/22 07:03:06;;;;;;;21.02;11.65;;;;;;;;;;5072888;28;20029;-60
2023/08/22 07:05:34;;;;;;;20.45;11.77;;;;;;;;;;5071698;28;20047;-58
2023/08/22 07:08:00;;;;;;;23.27;11.95;;;;;;;;;;5088569;28;20028;-58
2023/08/22 07:10:26;;;;;;;18.38;11.18;;;;;;;;;;5091778;28;20084;-54
2023/08/22 07:12:52;;;;;;;20.55;12.00;;;;;;;;;;5073623;28;20468;-58
2023/08/22 07:15:19;;;;;;;19.33;11.30;;;;;;;;;;5091801;28;20016;-58
2023/08/22 07:17:45;;;;;;;19.90;11.80;;;;;;;;;;5091818;28;20020;-58
2023/08/22 07:20:11;;;;;;;18.67;11.95;;;;;;;;;;5091720;28;20028;-57
2023/08/22 07:22:37;;;;;;;19.25;11.43;;;;;;;;;;5091803;28;20549;-58
2023/08/22 07:25:03;;;;;;;18.30;11.77;;;;;;;;;;5073079;28;20028;-57
2023/08/22 07:27:29;;;;;;;19.75;12.90;;;;;;;;;;5073624;28;20101;-58
2023/08/22 07:29:55;;;;;;;18.02;12.20;;;;;;;;;;5091268;28;20024;-58
2023/08/22 07:32:21;;;;;;;18.65;12.07;;;;;;;;;;5090905;28;20050;-56
2023/08/22 07:34:47;;;;;;;17.75;11.77;;;;;;;;;;5071292;28;20028;-55
2023/08/22 07:37:14;;;;;;;19.13;12.40;;;;;;;;;;5071399;28;20545;-57
2023/08/22 07:39:40;;;;;;;21.10;13.05;;;;;;;;;;5071141;28;20154;-56
2023/08/22 07:42:06;;;;;;;18.90;12.48;;;;;;;;;;5071092;28;20427;-60
2023/08/22 07:44:32;;;;;;;19.23;12.80;;;;;;;;;;5083834;28;20325;-55
2023/08/22 07:46:58;;;;;;;19.40;11.80;;;;;;;;;;5072955;28;20051;-58
2023/08/22 07:49:25;;;;;;;20.27;12.60;;;;;;;;;;5091068;28;20433;-55
2023/08/22 07:51:51;;;;;;;18.10;11.88;;;;;;;;;;5091210;28;20020;-57
2023/08/22 07:54:17;;;;;;;19.15;11.80;;;;;;;;;;5090819;28;20028;-58
2023/08/22 07:56:44;;;;;;;20.75;11.88;;;;;;;;;;5090965;28;20021;-55
2023/08/22 07:59:10;;;;;;;20.67;11.98;;;;;;;;;;5072409;28;20127;-58
2023/08/22 08:01:36;;;;;;;18.98;12.30;;;;;;;;;;5090303;28;20036;-57
2023/08/22 08:04:02;;;;;;;19.75;11.93;;;;;;;;;;5072343;28;20128;-55
2023/08/22 08:06:33;;;;;;;20.27;12.63;;;;;;;;;;5091047;28;20031;-57
2023/08/22 08:08:59;;;;;;;20.35;11.88;;;;;;;;;;5090953;28;20093;-57
2023/08/22 08:11:25;;;;;;;21.35;12.73;;;;;;;;;;5090823;28;20020;-57
2023/08/22 08:13:52;;;;;;;18.70;12.15;;;;;;;;;;5073169;28;20044;-56
2023/08/22 08:16:18;;;;;;;20.05;12.40;;;;;;;;;;5077523;28;20020;-59
2023/08/22 08:18:44;;;;;;;18.10;12.43;;;;;;;;;;5052799;28;20091;-57
2023/08/22 08:21:10;;;;;;;17.90;12.18;;;;;;;;;;5070746;28;20078;-57
2023/08/22 08:23:36;;;;;;;17.65;12.93;;;;;;;;;;5084076;28;20036;-58
2023/08/22 08:26:03;;;;;;;18.60;12.10;;;;;;;;;;5090666;28;20043;-59
2023/08/22 08:28:30;;;;;;;21.00;12.85;;;;;;;;;;5090593;28;20053;-58
2023/08/22 08:30:56;;;;;;;19.02;13.50;;;;;;;;;;5090325;28;20452;-55
2023/08/22 08:33:22;;;;;;;19.63;13.15;;;;;;;;;;5090571;28;20417;-56
2023/08/22 08:35:48;;;;;;;19.75;11.77;;;;;;;;;;5090438;28;20039;-58
2023/08/22 08:38:14;;;;;;;18.33;12.43;;;;;;;;;;5090669;28;20016;-59
2023/08/22 08:40:42;;;;;;;21.45;12.90;;;;;;;;;;5090582;28;20077;-57
2023/08/22 08:43:08;;;;;;;20.85;12.50;;;;;;;;;;5081241;28;20111;-58
2023/08/22 08:45:35;;;;;;;17.92;12.77;;;;;;;;;;5079995;28;20500;-56
2023/08/22 08:48:02;;;;;;;18.75;12.35;;;;;;;;;;5080367;28;20661;-55
2023/08/22 08:50:29;;;;;;;18.95;12.55;;;;;;;;;;5061579;28;20032;-54
2023/08/22 08:52:55;;;;;;;16.75;12.55;;;;;;;;;;5080665;28;20025;-55
2023/08/22 08:55:21;;;;;;;18.05;12.50;;;;;;;;;;5080534;28;20024;-56
2023/08/22 08:57:47;;;;;;;17.27;12.07;;;;;;;;;;5083344;28;20044;-55
2023/08/22 09:00:14;;;;;;;17.10;12.15;;;;;;;;;;5077109;28;20107;-58
2023/08/22 09:02:40;;;;;;;20.55;12.38;;;;;;;;;;5067786;28;20039;-58
2023/08/22 09:05:07;;;;;;;18.15;13.13;;;;;;;;;;5083625;28;20116;-58
2023/08/22 09:07:33;;;;;;;17.98;12.77;;;;;;;;;;5085518;28;20102;-56
2023/08/22 09:10:01;;;;;;;19.13;13.02;;;;;;;;;;5085397;28;20027;-56
2023/08/22 09:12:34;;;;;;;18.85;12.20;;;;;;;;;;5081510;28;20096;-59
2023/08/22 09:15:00;;;;;;;20.25;12.45;;;;;;;;;;5082793;28;20033;-60
2023/08/22 09:17:28;;;;;;;16.52;12.30;;;;;;;;;;5085148;28;20030;-60
2023/08/22 09:19:54;;;;;;;20.60;12.52;;;;;;;;;;5093924;28;20020;-60
2023/08/22 09:22:21;;;;;;;16.70;12.30;;;;;;;;;;5094251;28;20452;-59
2023/08/22 09:24:54;;;;;;;19.05;12.80;;;;;;;;;;5093741;28;20444;-60
2023/08/22 09:27:26;;;;;;;16.75;12.88;;;;;;;;;;5065718;28;20391;-60
2023/08/22 09:29:53;;;;;;;17.30;12.88;;;;;;;;;;5073161;28;20044;-59
2023/08/22 09:32:22;;;;;;;18.35;12.20;;;;;;;;;;5056506;28;20043;-60
2023/08/22 09:34:55;;;;;;;19.80;12.52;;;;;;;;;;5078820;28;20031;-57
2023/08/22 09:37:31;;;;;;;18.48;12.70;;;;;;;;;;5071980;28;20021;-58
2023/08/22 09:39:57;;;;;;;18.25;11.68;;;;;;;;;;5084981;28;20099;-60
2023/08/22 09:42:27;;;;;;;16.20;12.02;;;;;;;;;;5079033;28;20029;-60
2023/08/22 09:44:55;;;;;;;17.10;12.48;;;;;;;;;;5088868;28;20036;-59
2023/08/22 09:47:22;;;;;;;20.27;13.77;;;;;;;;;;5093595;28;20041;-59
2023/08/22 09:49:49;;;;;;;17.90;11.98;;;;;;;;;;5093016;28;20435;-59
2023/08/22 09:52:15;;;;;;;18.55;12.50;;;;;;;;;;5093913;28;20032;-61
2023/08/22 09:54:43;;;;;;;22.40;13.13;;;;;;;;;;5097328;28;20024;-59
2023/08/22 09:57:10;;;;;;;18.05;12.98;;;;;;;;;;5078210;28;20071;-59
2023/08/22 09:59:37;;;;;;;16.98;12.80;;;;;;;;;;5095496;28;20032;-59
2023/08/22 10:02:05;;;;;;;17.40;12.18;;;;;;;;;;5094354;28;20063;-59
2023/08/22 10:04:32;;;;;;;18.50;12.48;;;;;;;;;;5093187;28;20480;-58
2023/08/22 10:06:58;;;;;;;17.35;12.38;;;;;;;;;;5074002;28;20028;-60
2023/08/22 10:09:26;;;;;;;17.85;12.50;;;;;;;;;;5075002;28;20032;-59
2023/08/22 10:11:55;;;;;;;20.02;12.93;;;;;;;;;;5093459;28;20020;-60
2023/08/22 10:14:26;;;;;;;18.00;12.20;;;;;;;;;;5092888;28;20020;-60
2023/08/22 10:16:54;;;;;;;17.15;12.18;;;;;;;;;;5093379;28;20034;-61
2023/08/22 10:19:20;;;;;;;;;;;;;;;;;;5093599;28;20713;-58
2023/08/22 10:21:47;;;;;;;17.13;12.30;;;;;;;;;;5093011;28;19904;-58
2023/08/22 10:24:28;;;;;;;16.10;12.00;;;;;;;;;;5074306;28;20020;-59
2023/08/22 10:27:04;;;;;;;18.38;12.40;;;;;;;;;;5092761;28;20046;-57
2023/08/22 10:29:33;;;;;;;18.65;12.10;;;;;;;;;;5091105;28;20110;-58
2023/08/22 10:32:02;;;;;;;17.65;13.27;;;;;;;;;;5075746;28;20027;-60
2023/08/22 10:34:48;;;;;;;16.55;12.43;;;;;;;;;;5083880;28;20044;-60
2023/08/22 10:37:20;;;;;;;17.23;12.90;;;;;;;;;;5081252;28;20400;-59
2023/08/22 10:39:48;;;;;;;17.30;12.25;;;;;;;;;;5083950;28;20028;-58
2023/08/22 10:42:14;;;;;;;18.75;12.63;;;;;;;;;;5091042;28;20050;-59
2023/08/22 10:44:40;;;;;;;16.77;12.52;;;;;;;;;;5072040;28;20433;-60
2023/08/22 10:47:32;;;;;;;16.90;12.43;;;;;;;;;;5072149;28;20025;-58
2023/08/22 10:50:00;;;;;;;18.48;13.10;;;;;;;;;;5067814;28;20112;-61
2023/08/22 10:52:38;;;;;;;18.80;12.35;;;;;;;;;;5074587;28;20536;-59
2023/08/22 10:55:08;;;;;;;18.23;13.30;;;;;;;;;;5071561;28;20060;-59
2023/08/22 10:57:38;;;;;;;17.40;12.77;;;;;;;;;;5071761;28;20494;-59
2023/08/22 11:00:12;;;;;;;21.42;13.23;;;;;;;;;;5053629;28;20028;-60
2023/08/22 11:02:39;;;;;;;20.75;13.63;;;;;;;;;;5053993;28;20025;-58
2023/08/22 11:05:10;;;;;;;18.17;13.50;;;;;;;;;;5071204;28;20103;-59
2023/08/22 11:07:36;;;;;;;20.65;13.60;;;;;;;;;;5071556;28;20096;-57
2023/08/22 11:10:04;;;;;;;17.25;13.27;;;;;;;;;;5058313;28;20032;-59
2023/08/22 11:12:30;;;;;;;16.70;13.40;;;;;;;;;;5071590;28;20024;-59
2023/08/22 11:14:59;;;;;;;17.90;12.73;;;;;;;;;;5071243;28;20020;-58
2023/08/22 11:17:25;;;;;;;17.15;12.98;;;;;;;;;;5071143;28;20016;-57
2023/08/22 11:19:55;;;;;;;18.50;13.40;;;;;;;;;;5071381;28;20024;-61
2023/08/22 11:22:21;;;;;;;18.88;13.15;;;;;;;;;;5071301;28;20017;-57
2023/08/22 11:24:49;;;;;;;16.88;12.90;;;;;;;;;;5071373;28;20039;-57
2023/08/22 11:27:16;;;;;;;17.65;12.48;;;;;;;;;;5070103;28;20025;-56
2023/08/22 11:29:44;;;;;;;17.25;13.05;;;;;;;;;;5071380;28;20323;-60
2023/08/22 11:32:20;;;;;;;18.85;13.73;;;;;;;;;;5071072;28;20035;-57
2023/08/22 11:34:46;;;;;;;17.88;13.82;;;;;;;;;;5089879;28;20530;-60
2023/08/22 11:37:12;;;;;;;19.20;13.18;;;;;;;;;;5091877;28;20074;-60
2023/08/22 11:39:39;;;;;;;19.75;12.80;;;;;;;;;;5091471;28;20139;-54
2023/08/22 11:42:05;;;;;;;18.88;13.40;;;;;;;;;;5091680;28;20088;-58
2023/08/22 11:44:31;;;;;;;20.15;14.15;;;;;;;;;;5091437;28;20020;-59
2023/08/22 11:46:58;;;;;;;18.48;13.77;;;;;;;;;;5089807;28;20039;-61
2023/08/22 11:49:24;;;;;;;18.58;13.52;;;;;;;;;;5081938;28;20020;-59
2023/08/22 11:51:56;;;;;;;16.67;12.88;;;;;;;;;;5090611;28;20032;-55
2023/08/22 11:54:23;;;;;;;18.73;13.20;;;;;;;;;;5090783;28;20028;-58
2023/08/22 11:56:49;;;;;;;17.33;13.27;;;;;;;;;;5090927;28;20034;-59
2023/08/22 11:59:15;;;;;;;17.70;13.45;;;;;;;;;;5090587;28;20032;-59
2023/08/22 12:01:41;;;;;;;18.70;13.70;;;;;;;;;;5090473;28;20483;-58
2023/08/22 12:04:07;;;;;;;19.38;13.50;;;;;;;;;;5080844;28;20078;-61
2023/08/22 12:06:33;;;;;;;16.92;13.05;;;;;;;;;;5070831;28;20111;-60
2023/08/22 12:09:00;;;;;;;17.80;13.57;;;;;;;;;;5070497;28;20046;-59
2023/08/22 12:11:27;;;;;;;19.98;14.02;;;;;;;;;;5070399;28;20095;-57
2023/08/22 12:13:53;;;;;;;17.42;13.55;;;;;;;;;;5070407;28;20089;-59
2023/08/22 12:16:19;;;;;;;21.27;13.27;;;;;;;;;;5070665;28;20483;-57
2023/08/22 12:18:45;;;;;;;17.90;13.93;;;;;;;;;;5070217;28;20071;-58
2023/08/22 12:21:11;;;;;;;18.80;14.02;;;;;;;;;;5070328;28;20028;-57
2023/08/22 12:23:37;;;;;;;18.52;13.80;;;;;;;;;;5070571;28;20020;-57
2023/08/22 12:26:03;;;;;;;20.20;13.13;;;;;;;;;;5070608;28;20477;-58
2023/08/22 12:28:29;;;;;;;17.70;13.60;;;;;;;;;;5070393;28;20028;-60
2023/08/22 12:30:55;;;;;;;17.83;13.23;;;;;;;;;;5073024;28;20031;-60
2023/08/22 12:33:21;;;;;;;17.42;12.95;;;;;;;;;;5083329;28;20446;-60
2023/08/22 12:35:57;;;;;;;17.85;13.10;;;;;;;;;;5074526;28;20016;-62
2023/08/22 12:38:23;;;;;;;18.50;13.68;;;;;;;;;;5081238;28;20047;-57
2023/08/22 12:40:50;;;;;;;17.80;13.55;;;;;;;;;;5063237;28;20020;-59
2023/08/22 12:43:15;;;;;;;17.30;13.38;;;;;;;;;;5080884;28;20425;-57
2023/08/22 12:45:41;;;;;;;19.05;13.45;;;;;;;;;;5079223;28;20059;-57
2023/08/22 12:48:07;;;;;;;19.50;14.00;;;;;;;;;;5061580;28;20019;-61
2023/08/22 12:50:34;;;;;;;18.65;13.48;;;;;;;;;;5078571;28;20029;-58
2023/08/22 12:53:00;;;;;;;18.38;13.55;;;;;;;;;;5080448;28;20419;-55
2023/08/22 12:55:26;;;;;;;17.20;13.10;;;;;;;;;;5079562;28;20021;-58
2023/08/22 12:57:52;;;;;;;16.88;12.85;;;;;;;;;;5078736;28;20024;-58
2023/08/22 13:00:19;;;;;;;15.95;12.93;;;;;;;;;;5081258;28;20097;-57
2023/08/22 13:02:45;;;;;;;18.77;13.00;;;;;;;;;;5089625;28;20047;-58
2023/08/22 13:05:13;;;;;;;18.58;13.73;;;;;;;;;;5085379;28;20040;-53
2023/08/22 13:07:39;;;;;;;17.10;13.07;;;;;;;;;;5080315;28;20047;-51
2023/08/22 13:10:06;;;;;;;19.08;13.98;;;;;;;;;;5081387;28;20333;-55
2023/08/22 13:12:32;;;;;;;19.33;14.15;;;;;;;;;;5083881;28;20400;-58
2023/08/22 13:14:58;;;;;;;21.27;14.00;;;;;;;;;;5082118;28;20024;-60
2023/08/22 13:17:24;;;;;;;18.75;14.10;;;;;;;;;;5077447;28;20116;-60
2023/08/22 13:19:50;;;;;;;19.20;13.82;;;;;;;;;;5069775;28;20036;-57
2023/08/22 13:22:16;;;;;;;19.73;13.52;;;;;;;;;;5069564;28;20025;-59
2023/08/22 13:24:42;;;;;;;18.10;13.65;;;;;;;;;;5069639;28;20032;-58
2023/08/22 13:27:08;;;;;;;17.63;14.05;;;;;;;;;;5051715;28;20021;-60
2023/08/22 13:29:34;;;;;;;17.73;13.68;;;;;;;;;;5069698;28;20064;-57
2023/08/22 13:32:00;;;;;;;19.25;14.00;;;;;;;;;;5070067;28;20036;-58
2023/08/22 13:34:26;;;;;;;20.40;13.90;;;;;;;;;;5085523;28;20028;-59
2023/08/22 13:36:52;;;;;;;21.17;13.38;;;;;;;;;;5090024;28;20028;-57
2023/08/22 13:39:18;;;;;;;17.80;13.38;;;;;;;;;;5090042;28;20090;-58
2023/08/22 13:41:46;;;;;;;23.88;13.27;;;;;;;;;;5092792;28;20039;-58
2023/08/22 13:44:12;;;;;;;17.45;13.20;;;;;;;;;;5094113;28;20031;-57
2023/08/22 13:46:38;;;;;;;20.42;14.30;;;;;;;;;;5094149;28;20076;-60
2023/08/22 13:49:04;;;;;;;18.13;13.88;;;;;;;;;;5093814;28;20460;-59
2023/08/22 13:51:33;;;;;;;17.08;13.30;;;;;;;;;;5087244;28;20065;-57
2023/08/22 13:53:59;;;;;;;18.58;12.98;;;;;;;;;;5068176;28;20557;-57
2023/08/22 13:56:25;;;;;;;18.02;13.10;;;;;;;;;;5087429;28;20058;-58
2023/08/22 13:58:51;;;;;;;19.13;13.65;;;;;;;;;;5083716;28;20099;-58
2023/08/22 14:01:17;;;;;;;20.25;14.20;;;;;;;;;;5088103;28;20099;-59
2023/08/22 14:03:42;;;;;;;18.88;13.90;;;;;;;;;;4726501;28;10000109;-57
2023/08/22 14:06:08;;;;;;;18.90;13.20;;;;;;;;;;5079935;28;20110;-59
2023/08/22 14:08:34;;;;;;;20.15;12.60;;;;;;;;;;5078218;28;20074;-60
2023/08/22 14:11:00;;;;;;;18.58;13.25;;;;;;;;;;5053489;28;20468;-58
2023/08/22 14:13:26;;;;;;;17.17;13.23;;;;;;;;;;5086284;28;20032;-59
2023/08/22 14:15:52;;;;;;;16.85;12.93;;;;;;;;;;5089346;28;20033;-58
2023/08/22 14:18:18;;;;;;;18.33;14.10;;;;;;;;;;5089524;28;20028;-59